sensor_id;sensor_type;location;lat;lon;timestamp;pressure;altitude;pressure_sealevel;temperature;humidity
60719;BME280;46567;51.660;5.824;2023-04-01T00:00:35;99050.0;;;11.6;96.0
60719;BME280;46567;51.660;5.824;2023-04-01T00:05:35;99040.0;;;11.6;96.0
60719;BME280;46567;51.660;5.824;2023-04-01T00:10:35;99040.0;;;11.6;96.0
60719;BME280;46567;51.660;5.824;2023-04-01T00:15:35;99060.0;;;11.6;96.0
60719;BME280;46567;51.660;5.824;2023-04-01T00:20:35;99050.0;;;11.6;96.5
60719;BME280;46567;51.660;5.824;2023-04-01T00:25:35;99060.0;;;11.6;96.5
60719;BME280;46567;51.660;5.824;2023-04-01T00:30:35;99060.0;;;11.6;96.5
60719;BME280;46567;51.660;5.824;2023-04-01T00:35:35;99060.0;;;11.6;96.5
60719;BME280;46567;51.660;5.824;2023-04-01T00:40:39;99060.0;;;11.6;97.0
60719;BME280;46567;51.660;5.824;2023-04-01T00:45:36;99060.0;;;11.6;97.0
60719;BME280;46567;51.660;5.824;2023-04-01T00:50:36;99060.0;;;11.6;97.0
60719;BME280;46567;51.660;5.824;2023-04-01T00:55:37;99070.0;;;11.6;97.0
60719;BME280;46567;51.660;5.824;2023-04-01T01:00:35;99070.0;;;11.6;97.0
60719;BME280;46567;51.660;5.824;2023-04-01T01:05:46;99060.0;;;11.6;97.0
60719;BME280;46567;51.660;5.824;2023-04-01T01:15:44;99070.0;;;11.5;97.5
60719;BME280;46567;51.660;5.824;2023-04-01T01:21:38;99070.0;;;11.5;97.5
60719;BME280;46567;51.660;5.824;2023-04-01T01:27:01;99070.0;;;11.5;97.5
60719;BME280;46567;51.660;5.824;2023-04-01T01:30:51;99080.0;;;11.6;97.5
60719;BME280;46567;51.660;5.824;2023-04-01T01:40:41;99090.0;;;11.5;97.5
60719;BME280;46567;51.660;5.824;2023-04-01T01:45:37;99090.0;;;11.5;97.5
60719;BME280;46567;51.660;5.824;2023-04-01T01:50:36;99090.0;;;11.6;97.5
60719;BME280;46567;51.660;5.824;2023-04-01T01:55:42;99090.0;;;11.6;98.0
60719;BME280;46567;51.660;5.824;2023-04-01T02:00:35;99100.0;;;11.6;98.0
60719;BME280;46567;51.660;5.824;2023-04-01T02:05:50;99100.0;;;11.5;98.0
60719;BME280;46567;51.660;5.824;2023-04-01T02:10:39;99100.0;;;11.5;98.0
60719;BME280;46567;51.660;5.824;2023-04-01T02:20:36;99110.0;;;11.5;98.5
60719;BME280;46567;51.660;5.824;2023-04-01T02:25:36;99110.0;;;11.5;98.5
60719;BME280;46567;51.660;5.824;2023-04-01T02:30:36;99120.0;;;11.5;98.5
60719;BME280;46567;51.660;5.824;2023-04-01T02:35:36;99120.0;;;11.5;98.5
60719;BME280;46567;51.660;5.824;2023-04-01T02:40:47;99120.0;;;11.5;98.5
60719;BME280;46567;51.660;5.824;2023-04-01T02:45:35;99120.0;;;11.5;98.5
60719;BME280;46567;51.660;5.824;2023-04-01T02:50:35;99130.0;;;11.5;98.5
60719;BME280;46567;51.660;5.824;2023-04-01T02:55:35;99140.0;;;11.5;98.5
60719;BME280;46567;51.660;5.824;2023-04-01T03:00:35;99130.0;;;11.4;98.5
60719;BME280;46567;51.660;5.824;2023-04-01T03:05:35;99140.0;;;11.4;98.5
60719;BME280;46567;51.660;5.824;2023-04-01T03:10:35;99140.0;;;11.4;98.5
60719;BME280;46567;51.660;5.824;2023-04-01T03:15:35;99150.0;;;11.3;98.5
60719;BME280;46567;51.660;5.824;2023-04-01T03:20:35;99140.0;;;11.3;98.5
60719;BME280;46567;51.660;5.824;2023-04-01T03:30:35;99150.0;;;11.3;99.0
60719;BME280;46567;51.660;5.824;2023-04-01T03:35:35;99150.0;;;11.3;99.0
60719;BME280;46567;51.660;5.824;2023-04-01T03:40:35;99150.0;;;11.3;98.5
60719;BME280;46567;51.660;5.824;2023-04-01T03:45:35;99160.0;;;11.3;99.0
60719;BME280;46567;51.660;5.824;2023-04-01T03:50:35;99160.0;;;11.3;99.0
60719;BME280;46567;51.660;5.824;2023-04-01T03:55:36;99170.0;;;11.2;99.0
60719;BME280;46567;51.660;5.824;2023-04-01T04:05:35;99170.0;;;11.2;99.5
60719;BME280;46567;51.660;5.824;2023-04-01T04:10:35;99170.0;;;11.2;99.5
60719;BME280;46567;51.660;5.824;2023-04-01T04:15:35;99180.0;;;11.2;99.5
60719;BME280;46567;51.660;5.824;2023-04-01T04:20:35;99180.0;;;11.2;99.5
60719;BME280;46567;51.660;5.824;2023-04-01T04:25:35;99190.0;;;11.1;99.5
60719;BME280;46567;51.660;5.824;2023-04-01T04:30:35;99190.0;;;11.1;100.0
60719;BME280;46567;51.660;5.824;2023-04-01T04:35:35;99190.0;;;11.1;100.0
60719;BME280;46567;51.660;5.824;2023-04-01T04:40:35;99190.0;;;11.1;99.5
60719;BME280;46567;51.660;5.824;2023-04-01T04:45:35;99200.0;;;11.1;100.0
60719;BME280;46567;51.660;5.824;2023-04-01T04:50:35;99200.0;;;11.1;100.0
60719;BME280;46567;51.660;5.824;2023-04-01T05:00:35;99210.0;;;11.0;100.0
60719;BME280;46567;51.660;5.824;2023-04-01T05:05:53;99200.0;;;11.0;100.0
60719;BME280;46567;51.660;5.824;2023-04-01T05:10:35;99210.0;;;10.9;100.0
60719;BME280;46567;51.660;5.824;2023-04-01T05:15:35;99220.0;;;10.9;100.0
60719;BME280;46567;51.660;5.824;2023-04-01T05:20:35;99230.0;;;11.0;100.0
60719;BME280;46567;51.660;5.824;2023-04-01T05:25:37;99230.0;;;10.9;100.0
60719;BME280;46567;51.660;5.824;2023-04-01T05:30:35;99240.0;;;10.9;100.0
60719;BME280;46567;51.660;5.824;2023-04-01T05:40:35;99260.0;;;10.9;100.0
60719;BME280;46567;51.660;5.824;2023-04-01T05:45:35;99260.0;;;10.9;100.0
60719;BME280;46567;51.660;5.824;2023-04-01T05:50:35;99260.0;;;10.9;100.0
60719;BME280;46567;51.660;5.824;2023-04-01T05:55:35;99270.0;;;11.0;100.0
60719;BME280;46567;51.660;5.824;2023-04-01T06:00:35;99270.0;;;11.0;100.0
60719;BME280;46567;51.660;5.824;2023-04-01T06:05:38;99270.0;;;11.0;100.0
60719;BME280;46567;51.660;5.824;2023-04-01T06:10:39;99290.0;;;11.0;100.0
60719;BME280;46567;51.660;5.824;2023-04-01T06:15:48;99290.0;;;11.0;100.0
60719;BME280;46567;51.660;5.824;2023-04-01T06:26:12;99320.0;;;11.1;100.0
60719;BME280;46567;51.660;5.824;2023-04-01T06:31:25;99320.0;;;11.1;100.0
60719;BME280;46567;51.660;5.824;2023-04-01T06:36:27;99330.0;;;11.1;100.0
60719;BME280;46567;51.660;5.824;2023-04-01T06:41:44;99330.0;;;11.2;100.0
60719;BME280;46567;51.660;5.824;2023-04-01T06:46:41;99340.0;;;11.2;100.0
60719;BME280;46567;51.660;5.824;2023-04-01T06:51:44;99340.0;;;11.3;100.0
60719;BME280;46567;51.660;5.824;2023-04-01T06:55:50;99340.0;;;11.3;100.0
60719;BME280;46567;51.660;5.824;2023-04-01T07:00:37;99350.0;;;11.4;100.0
60719;BME280;46567;51.660;5.824;2023-04-01T07:05:35;99360.0;;;11.5;100.0
60719;BME280;46567;51.660;5.824;2023-04-01T07:10:41;99360.0;;;11.5;100.0
60719;BME280;46567;51.660;5.824;2023-04-01T07:15:40;99370.0;;;11.6;100.0
60719;BME280;46567;51.660;5.824;2023-04-01T07:25:38;99390.0;;;11.6;100.0
60719;BME280;46567;51.660;5.824;2023-04-01T07:31:00;99390.0;;;11.7;100.0
60719;BME280;46567;51.660;5.824;2023-04-01T07:35:38;99400.0;;;11.7;100.0
60719;BME280;46567;51.660;5.824;2023-04-01T07:41:02;99410.0;;;11.8;100.0
60719;BME280;46567;51.660;5.824;2023-04-01T07:46:46;99420.0;;;11.9;100.0
60719;BME280;46567;51.660;5.824;2023-04-01T07:55:50;99420.0;;;12.0;100.0
60719;BME280;46567;51.660;5.824;2023-04-01T08:00:44;99430.0;;;12.0;100.0
60719;BME280;46567;51.660;5.824;2023-04-01T08:05:40;99440.0;;;12.0;100.0
60719;BME280;46567;51.660;5.824;2023-04-01T08:11:10;99440.0;;;12.0;99.5
60719;BME280;46567;51.660;5.824;2023-04-01T08:15:55;99450.0;;;12.0;99.5
60719;BME280;46567;51.660;5.824;2023-04-01T08:20:47;99460.0;;;12.0;99.5
60719;BME280;46567;51.660;5.824;2023-04-01T08:25:37;99470.0;;;11.9;99.5
60719;BME280;46567;51.660;5.824;2023-04-01T08:30:44;99470.0;;;11.9;100.0
60719;BME280;46567;51.660;5.824;2023-04-01T08:35:38;99490.0;;;11.9;100.0
60719;BME280;46567;51.660;5.824;2023-04-01T08:40:58;99500.0;;;11.9;100.0
60719;BME280;46567;51.660;5.824;2023-04-01T08:45:44;99500.0;;;11.9;100.0
60719;BME280;46567;51.660;5.824;2023-04-01T08:50:51;99500.0;;;11.9;100.0
60719;BME280;46567;51.660;5.824;2023-04-01T08:56:10;99510.0;;;11.9;100.0
60719;BME280;46567;51.660;5.824;2023-04-01T09:07:11;99530.0;;;11.9;100.0
60719;BME280;46567;51.660;5.824;2023-04-01T09:13:05;99540.0;;;11.9;100.0
60719;BME280;46567;51.660;5.824;2023-04-01T09:18:44;99550.0;;;11.9;100.0
60719;BME280;46567;51.660;5.824;2023-04-01T09:25:01;99550.0;;;12.0;100.0
60719;BME280;46567;51.660;5.824;2023-04-01T09:29:30;99560.0;;;12.0;100.0
60719;BME280;46567;51.660;5.824;2023-04-01T09:36:03;99560.0;;;12.0;100.0
60719;BME280;46567;51.660;5.824;2023-04-01T09:40:21;99570.0;;;12.0;100.0
60719;BME280;46567;51.660;5.824;2023-04-01T09:45:37;99570.0;;;12.0;100.0
60719;BME280;46567;51.660;5.824;2023-04-01T09:50:45;99580.0;;;12.0;100.0
60719;BME280;46567;51.660;5.824;2023-04-01T09:57:02;99580.0;;;12.1;100.0
60719;BME280;46567;51.660;5.824;2023-04-01T10:05:26;99590.0;;;12.1;100.0
60719;BME280;46567;51.660;5.824;2023-04-01T10:13:11;99590.0;;;12.2;100.0
60719;BME280;46567;51.660;5.824;2023-04-01T10:20:40;99590.0;;;12.3;100.0
60719;BME280;46567;51.660;5.824;2023-04-01T10:27:16;99600.0;;;12.3;100.0
60719;BME280;46567;51.660;5.824;2023-04-01T10:34:17;99610.0;;;12.4;100.0
60719;BME280;46567;51.660;5.824;2023-04-01T10:40:20;99620.0;;;12.4;100.0
60719;BME280;46567;51.660;5.824;2023-04-01T10:48:18;99620.0;;;12.5;100.0
60719;BME280;46567;51.660;5.824;2023-04-01T10:54:48;99620.0;;;12.5;99.5
60719;BME280;46567;51.660;5.824;2023-04-01T11:01:17;99630.0;;;12.4;100.0
60719;BME280;46567;51.660;5.824;2023-04-01T11:18:24;99640.0;;;12.4;99.5
60719;BME280;46567;51.660;5.824;2023-04-01T11:25:17;99640.0;;;12.4;99.5
60719;BME280;46567;51.660;5.824;2023-04-01T11:31:04;99650.0;;;12.4;99.5
60719;BME280;46567;51.660;5.824;2023-04-01T11:35:54;99650.0;;;12.5;99.5
60719;BME280;46567;51.660;5.824;2023-04-01T11:40:58;99660.0;;;12.5;100.0
60719;BME280;46567;51.660;5.824;2023-04-01T11:45:50;99670.0;;;12.6;100.0
60719;BME280;46567;51.660;5.824;2023-04-01T11:50:09;99670.0;;;12.6;99.5
60719;BME280;46567;51.660;5.824;2023-04-01T11:56:11;99670.0;;;12.7;99.5
60719;BME280;46567;51.660;5.824;2023-04-01T12:01:33;99670.0;;;12.7;99.5
60719;BME280;46567;51.660;5.824;2023-04-01T12:06:33;99680.0;;;12.8;99.5
60719;BME280;46567;51.660;5.824;2023-04-01T12:11:26;99680.0;;;13.0;99.5
60719;BME280;46567;51.660;5.824;2023-04-01T12:16:30;99690.0;;;13.0;99.0
60719;BME280;46567;51.660;5.824;2023-04-01T12:20:57;99690.0;;;13.0;99.0
60719;BME280;46567;51.660;5.824;2023-04-01T12:26:13;99700.0;;;13.0;99.0
60719;BME280;46567;51.660;5.824;2023-04-01T12:31:23;99700.0;;;13.0;99.0
60719;BME280;46567;51.660;5.824;2023-04-01T12:36:52;99710.0;;;13.0;99.5
60719;BME280;46567;51.660;5.824;2023-04-01T12:42:22;99720.0;;;13.0;99.5
60719;BME280;46567;51.660;5.824;2023-04-01T12:48:02;99730.0;;;13.0;99.0
60719;BME280;46567;51.660;5.824;2023-04-01T12:53:44;99740.0;;;13.0;99.0
60719;BME280;46567;51.660;5.824;2023-04-01T13:05:57;99740.0;;;13.0;99.5
60719;BME280;46567;51.660;5.824;2023-04-01T13:11:00;99750.0;;;13.1;99.5
60719;BME280;46567;51.660;5.824;2023-04-01T13:16:31;99750.0;;;13.3;99.0
60719;BME280;46567;51.660;5.824;2023-04-01T13:21:42;99760.0;;;13.4;98.5
60719;BME280;46567;51.660;5.824;2023-04-01T13:26:46;99760.0;;;13.5;98.0
60719;BME280;46567;51.660;5.824;2023-04-01T13:30:42;99770.0;;;13.5;98.0
60719;BME280;46567;51.660;5.824;2023-04-01T13:42:11;99790.0;;;13.5;97.5
60719;BME280;46567;51.660;5.824;2023-04-01T13:46:06;99780.0;;;13.5;98.0
60719;BME280;46567;51.660;5.824;2023-04-01T13:57:26;99790.0;;;13.6;98.0
60719;BME280;46567;51.660;5.824;2023-04-01T14:02:41;99800.0;;;13.6;97.5
60719;BME280;46567;51.660;5.824;2023-04-01T14:07:31;99810.0;;;13.5;97.0
60719;BME280;46567;51.660;5.824;2023-04-01T14:13:18;99820.0;;;13.4;97.5
60719;BME280;46567;51.660;5.824;2023-04-01T14:18:29;99820.0;;;13.3;97.5
60719;BME280;46567;51.660;5.824;2023-04-01T14:23:48;99820.0;;;13.3;97.5
60719;BME280;46567;51.660;5.824;2023-04-01T14:29:11;99840.0;;;13.2;97.5
60719;BME280;46567;51.660;5.824;2023-04-01T14:34:37;99840.0;;;13.1;98.0
60719;BME280;46567;51.660;5.824;2023-04-01T14:45:45;99840.0;;;13.0;98.0
60719;BME280;46567;51.660;5.824;2023-04-01T14:50:08;99860.0;;;13.0;98.0
60719;BME280;46567;51.660;5.824;2023-04-01T14:52:03;99860.0;;;12.9;98.0
60719;BME280;46567;51.660;5.824;2023-04-01T14:54:58;99870.0;;;12.9;98.5
60719;BME280;46567;51.660;5.824;2023-04-01T14:56:08;99870.0;;;12.9;98.5
60719;BME280;46567;51.660;5.824;2023-04-01T14:57:34;99880.0;;;12.8;98.5
60719;BME280;46567;51.660;5.824;2023-04-01T14:57:38;99880.0;;;12.8;99.0
60719;BME280;46567;51.660;5.824;2023-04-01T14:58:42;99890.0;;;12.8;99.0
60719;BME280;46567;51.660;5.824;2023-04-01T14:59:30;99890.0;;;12.9;99.0
60719;BME280;46567;51.660;5.824;2023-04-01T15:00:22;99900.0;;;12.8;99.0
60719;BME280;46567;51.660;5.824;2023-04-01T15:03:48;99900.0;;;12.9;99.0
60719;BME280;46567;51.660;5.824;2023-04-01T15:09:00;99900.0;;;12.9;99.0
60719;BME280;46567;51.660;5.824;2023-04-01T15:14:55;99910.0;;;12.8;99.0
60719;BME280;46567;51.660;5.824;2023-04-01T15:26:21;99930.0;;;12.8;99.5
60719;BME280;46567;51.660;5.824;2023-04-01T15:31:31;99930.0;;;12.9;99.5
60719;BME280;46567;51.660;5.824;2023-04-01T15:36:53;99940.0;;;12.9;99.5
60719;BME280;46567;51.660;5.824;2023-04-01T15:41:17;99940.0;;;13.0;99.5
60719;BME280;46567;51.660;5.824;2023-04-01T15:43:53;99940.0;;;13.0;99.5
60719;BME280;46567;51.660;5.824;2023-04-01T15:43:57;99950.0;;;13.0;99.5
60719;BME280;46567;51.660;5.824;2023-04-01T15:44:02;99950.0;;;12.9;99.5
60719;BME280;46567;51.660;5.824;2023-04-01T15:46:52;99960.0;;;12.9;99.5
60719;BME280;46567;51.660;5.824;2023-04-01T15:50:53;99970.0;;;12.9;99.5
60719;BME280;46567;51.660;5.824;2023-04-01T15:55:45;99980.0;;;12.8;99.5
60719;BME280;46567;51.660;5.824;2023-04-01T16:01:29;99980.0;;;12.7;99.5
60719;BME280;46567;51.660;5.824;2023-04-01T16:06:46;99990.0;;;12.7;99.5
60719;BME280;46567;51.660;5.824;2023-04-01T16:12:52;100000.0;;;12.7;99.5
60719;BME280;46567;51.660;5.824;2023-04-01T16:22:53;100010.0;;;12.6;100.0
60719;BME280;46567;51.660;5.824;2023-04-01T16:26:52;100010.0;;;12.6;100.0
60719;BME280;46567;51.660;5.824;2023-04-01T16:31:35;100020.0;;;12.6;100.0
60719;BME280;46567;51.660;5.824;2023-04-01T16:35:46;100020.0;;;12.6;100.0
60719;BME280;46567;51.660;5.824;2023-04-01T16:40:40;100030.0;;;12.6;100.0
60719;BME280;46567;51.660;5.824;2023-04-01T16:45:40;100040.0;;;12.6;100.0
60719;BME280;46567;51.660;5.824;2023-04-01T16:50:42;100060.0;;;12.5;100.0
60719;BME280;46567;51.660;5.824;2023-04-01T16:55:42;100070.0;;;12.5;100.0
60719;BME280;46567;51.660;5.824;2023-04-01T17:01:01;100070.0;;;12.6;100.0
60719;BME280;46567;51.660;5.824;2023-04-01T17:05:42;100080.0;;;12.6;100.0
60719;BME280;46567;51.660;5.824;2023-04-01T17:11:41;100090.0;;;12.6;100.0
60719;BME280;46567;51.660;5.824;2023-04-01T17:16:23;100110.0;;;12.6;100.0
60719;BME280;46567;51.660;5.824;2023-04-01T17:21:00;100120.0;;;12.6;100.0
60719;BME280;46567;51.660;5.824;2023-04-01T17:25:48;100130.0;;;12.5;100.0
60719;BME280;46567;51.660;5.824;2023-04-01T17:30:58;100140.0;;;12.4;100.0
60719;BME280;46567;51.660;5.824;2023-04-01T17:35:57;100140.0;;;12.3;100.0
60719;BME280;46567;51.660;5.824;2023-04-01T17:45:48;100160.0;;;12.1;100.0
60719;BME280;46567;51.660;5.824;2023-04-01T17:56:24;100200.0;;;12.1;100.0
60719;BME280;46567;51.660;5.824;2023-04-01T18:01:16;100210.0;;;12.0;100.0
60719;BME280;46567;51.660;5.824;2023-04-01T18:06:25;100220.0;;;11.8;100.0
60719;BME280;46567;51.660;5.824;2023-04-01T18:12:13;100220.0;;;11.6;100.0
60719;BME280;46567;51.660;5.824;2023-04-01T18:17:27;100240.0;;;11.5;100.0
60719;BME280;46567;51.660;5.824;2023-04-01T18:22:39;100250.0;;;11.5;100.0
60719;BME280;46567;51.660;5.824;2023-04-01T18:25:52;100270.0;;;11.5;100.0
60719;BME280;46567;51.660;5.824;2023-04-01T18:30:36;100290.0;;;11.5;100.0
60719;BME280;46567;51.660;5.824;2023-04-01T18:35:54;100300.0;;;11.4;100.0
60719;BME280;46567;51.660;5.824;2023-04-01T18:40:42;100320.0;;;11.3;100.0
60719;BME280;46567;51.660;5.824;2023-04-01T18:45:37;100330.0;;;11.2;100.0
60719;BME280;46567;51.660;5.824;2023-04-01T18:50:41;100340.0;;;11.2;100.0
60719;BME280;46567;51.660;5.824;2023-04-01T18:55:43;100350.0;;;11.1;100.0
60719;BME280;46567;51.660;5.824;2023-04-01T19:00:41;100360.0;;;11.1;100.0
60719;BME280;46567;51.660;5.824;2023-04-01T19:05:44;100370.0;;;11.0;100.0
60719;BME280;46567;51.660;5.824;2023-04-01T19:10:44;100390.0;;;11.0;100.0
60719;BME280;46567;51.660;5.824;2023-04-01T19:15:49;100390.0;;;10.9;100.0
60719;BME280;46567;51.660;5.824;2023-04-01T19:21:04;100420.0;;;10.8;100.0
60719;BME280;46567;51.660;5.824;2023-04-01T19:25:58;100410.0;;;10.7;100.0
60719;BME280;46567;51.660;5.824;2023-04-01T19:30:54;100430.0;;;10.7;100.0
60719;BME280;46567;51.660;5.824;2023-04-01T19:36:13;100440.0;;;10.6;100.0
60719;BME280;46567;51.660;5.824;2023-04-01T19:40:48;100440.0;;;10.6;100.0
60719;BME280;46567;51.660;5.824;2023-04-01T19:46:14;100460.0;;;10.6;100.0
60719;BME280;46567;51.660;5.824;2023-04-01T19:51:00;100460.0;;;10.5;100.0
60719;BME280;46567;51.660;5.824;2023-04-01T19:55:39;100470.0;;;10.4;100.0
60719;BME280;46567;51.660;5.824;2023-04-01T20:00:39;100490.0;;;10.3;100.0
60719;BME280;46567;51.660;5.824;2023-04-01T20:05:55;100500.0;;;10.2;100.0
60719;BME280;46567;51.660;5.824;2023-04-01T20:10:53;100500.0;;;10.1;100.0
60719;BME280;46567;51.660;5.824;2023-04-01T20:15:38;100520.0;;;10.1;100.0
60719;BME280;46567;51.660;5.824;2023-04-01T20:20:36;100540.0;;;10.1;100.0
60719;BME280;46567;51.660;5.824;2023-04-01T20:25:42;100540.0;;;10.1;100.0
60719;BME280;46567;51.660;5.824;2023-04-01T20:31:04;100560.0;;;10.1;100.0
60719;BME280;46567;51.660;5.824;2023-04-01T20:36:06;100570.0;;;10.0;100.0
60719;BME280;46567;51.660;5.824;2023-04-01T20:41:01;100580.0;;;10.0;100.0
60719;BME280;46567;51.660;5.824;2023-04-01T20:45:40;100590.0;;;10.0;100.0
60719;BME280;46567;51.660;5.824;2023-04-01T20:50:58;100600.0;;;10.0;100.0
60719;BME280;46567;51.660;5.824;2023-04-01T21:00:57;100630.0;;;9.8;100.0
60719;BME280;46567;51.660;5.824;2023-04-01T21:06:41;100630.0;;;9.8;100.0
60719;BME280;46567;51.660;5.824;2023-04-01T21:16:30;100650.0;;;9.8;100.0
60719;BME280;46567;51.660;5.824;2023-04-01T21:22:15;100660.0;;;9.7;100.0
60719;BME280;46567;51.660;5.824;2023-04-01T21:26:57;100670.0;;;9.7;100.0
60719;BME280;46567;51.660;5.824;2023-04-01T21:32:49;100690.0;;;9.6;100.0
60719;BME280;46567;51.660;5.824;2023-04-01T21:38:18;100700.0;;;9.6;100.0
60719;BME280;46567;51.660;5.824;2023-04-01T21:44:36;100710.0;;;9.5;100.0
60719;BME280;46567;51.660;5.824;2023-04-01T21:59:16;100730.0;;;9.4;99.5
60719;BME280;46567;51.660;5.824;2023-04-01T22:05:04;100740.0;;;9.4;99.5
60719;BME280;46567;51.660;5.824;2023-04-01T22:08:47;100750.0;;;9.3;99.5
60719;BME280;46567;51.660;5.824;2023-04-01T22:13:18;100760.0;;;9.3;99.5
60719;BME280;46567;51.660;5.824;2023-04-01T22:17:30;100770.0;;;9.3;99.0
60719;BME280;46567;51.660;5.824;2023-04-01T22:22:55;100770.0;;;9.2;98.5
60719;BME280;46567;51.660;5.824;2023-04-01T22:26:54;100780.0;;;9.1;98.5
60719;BME280;46567;51.660;5.824;2023-04-01T22:35:06;100810.0;;;9.1;98.0
60719;BME280;46567;51.660;5.824;2023-04-01T22:40:27;100830.0;;;9.0;97.5
60719;BME280;46567;51.660;5.824;2023-04-01T22:43:57;100820.0;;;8.9;98.0
60719;BME280;46567;51.660;5.824;2023-04-01T22:46:38;100840.0;;;8.8;98.0
60719;BME280;46567;51.660;5.824;2023-04-01T22:50:56;100840.0;;;8.8;98.5
60719;BME280;46567;51.660;5.824;2023-04-01T22:55:38;100850.0;;;8.8;98.5
60719;BME280;46567;51.660;5.824;2023-04-01T23:00:45;100860.0;;;8.8;98.5
60719;BME280;46567;51.660;5.824;2023-04-01T23:05:43;100860.0;;;8.8;98.0
60719;BME280;46567;51.660;5.824;2023-04-01T23:10:40;100870.0;;;8.8;98.0
60719;BME280;46567;51.660;5.824;2023-04-01T23:15:36;100880.0;;;8.8;98.5
60719;BME280;46567;51.660;5.824;2023-04-01T23:25:40;100900.0;;;8.7;98.5
60719;BME280;46567;51.660;5.824;2023-04-01T23:30:53;100920.0;;;8.7;98.5
60719;BME280;46567;51.660;5.824;2023-04-01T23:35:45;100910.0;;;8.7;98.0
60719;BME280;46567;51.660;5.824;2023-04-01T23:40:36;100930.0;;;8.7;98.0
60719;BME280;46567;51.660;5.824;2023-04-01T23:45:36;100940.0;;;8.6;97.5
60719;BME280;46567;51.660;5.824;2023-04-01T23:50:36;100940.0;;;8.5;97.5
60719;BME280;46567;51.660;5.824;2023-04-01T23:55:40;100950.0;;;8.5;97.5
